Time;durP1;ratioP1;P1;durP2;ratioP2;P2;SDS_P1;SDS_P2;PMS_P1;PMS_P2;Temp;Humidity;BMP_temperature;BMP_pressure;BME280_temperature;BME280_humidity;BME280_pressure;Samples;Min_cycle;Max_cycle;Signal;HPM_P1;HPM_P2
2023/01/26 00:00:54;;;;;;;17.95;9.02;;;3.50;73.90;;;;;;5018435;28;20029;-94
2023/01/26 00:03:21;;;;;;;17.75;8.90;;;3.50;74.00;;;;;;5013511;28;20057;-94
2023/01/26 00:05:46;;;;;;;17.77;8.50;;;3.50;74.10;;;;;;5015045;28;20147;-94
2023/01/26 00:08:12;;;;;;;18.77;7.95;;;3.50;73.90;;;;;;5013921;28;20026;-94
2023/01/26 00:10:40;;;;;;;16.83;8.63;;;3.50;74.00;;;;;;5017290;28;20030;-95
2023/01/26 00:13:09;;;;;;;18.60;9.35;;;3.50;74.10;;;;;;5009298;28;20139;-94
2023/01/26 00:15:35;;;;;;;17.90;9.20;;;3.50;74.20;;;;;;5020344;28;20025;-93
2023/01/26 00:18:03;;;;;;;17.30;9.25;;;3.50;74.30;;;;;;5011780;28;20036;-92
2023/01/26 00:20:29;;;;;;;16.83;9.27;;;3.50;74.30;;;;;;5020567;28;20025;-95
2023/01/26 00:22:55;;;;;;;22.33;9.68;;;3.60;74.10;;;;;;5018962;28;20544;-94
2023/01/26 00:25:21;;;;;;;19.95;9.63;;;3.60;74.20;;;;;;5016508;28;20061;-93
2023/01/26 00:27:47;;;;;;;18.67;9.23;;;3.60;74.10;;;;;;5007791;28;20034;-95
2023/01/26 00:30:47;;;;;;;22.85;9.82;;;3.60;74.00;;;;;;5026857;28;20033;-93
2023/01/26 00:33:13;;;;;;;17.50;9.13;;;3.60;74.00;;;;;;5020076;28;20033;-94
2023/01/26 00:35:43;;;;;;;19.15;9.65;;;3.60;73.90;;;;;;5023368;28;20033;-96
2023/01/26 00:38:12;;;;;;;18.42;9.95;;;3.70;74.00;;;;;;5028428;28;20045;-95
2023/01/26 00:40:38;;;;;;;17.08;9.65;;;3.70;74.20;;;;;;5022647;28;20050;-95
2023/01/26 00:43:05;;;;;;;18.50;9.63;;;3.70;74.20;;;;;;5028371;28;20076;-93
2023/01/26 00:45:31;;;;;;;18.88;9.52;;;3.70;74.10;;;;;;5030317;28;20025;-92
2023/01/26 00:47:59;;;;;;;18.48;10.50;;;3.70;74.10;;;;;;5035016;28;20014;-94
2023/01/26 00:50:25;;;;;;;19.35;10.35;;;3.70;74.10;;;;;;5038458;28;20044;-94
2023/01/26 00:52:52;;;;;;;18.88;9.95;;;3.70;74.00;;;;;;5034495;28;20045;-94
2023/01/26 00:55:18;;;;;;;20.48;10.05;;;3.80;74.10;;;;;;5028518;28;20057;-96
2023/01/26 00:57:44;;;;;;;20.17;10.23;;;3.80;74.10;;;;;;5034621;28;20465;-93
2023/01/26 01:00:15;;;;;;;21.00;10.02;;;3.80;74.00;;;;;;5020692;28;20042;-94
2023/01/26 01:02:57;;;;;;;24.92;10.55;;;3.80;74.10;;;;;;5030241;28;20031;-94
2023/01/26 01:05:25;;;;;;;19.58;9.45;;;3.80;74.10;;;;;;5007928;28;20069;-95
2023/01/26 01:07:50;;;;;;;15.68;8.80;;;3.80;74.10;;;;;;5011698;28;20034;-96
2023/01/26 01:10:16;;;;;;;16.88;9.13;;;3.80;74.00;;;;;;5015188;28;20527;-94
2023/01/26 01:12:42;;;;;;;17.50;9.13;;;3.80;74.00;;;;;;5016401;28;20021;-96
2023/01/26 01:15:08;;;;;;;15.90;8.38;;;3.80;74.00;;;;;;5008666;28;20033;-93
2023/01/26 01:17:35;;;;;;;16.60;9.02;;;3.80;74.00;;;;;;5004925;28;20022;-94
2023/01/26 01:20:02;;;;;;;15.77;8.60;;;3.80;73.90;;;;;;5009611;28;20029;-95
2023/01/26 01:22:28;;;;;;;15.30;8.70;;;3.80;73.80;;;;;;5010344;28;20108;-95
2023/01/26 01:24:54;;;;;;;15.52;9.10;;;3.80;73.80;;;;;;5013895;28;20049;-95
2023/01/26 01:27:19;;;;;;;20.58;8.52;;;3.70;73.70;;;;;;5013134;28;20093;-94
2023/01/26 01:29:45;;;;;;;15.85;8.68;;;3.70;73.70;;;;;;5014342;28;20085;-95
2023/01/26 01:32:11;;;;;;;13.57;8.10;;;3.70;73.70;;;;;;5013444;28;20129;-96
2023/01/26 01:34:37;;;;;;;16.52;8.88;;;3.70;73.70;;;;;;5014152;28;20117;-96
2023/01/26 01:37:02;;;;;;;14.63;7.88;;;3.80;74.60;;;;;;5012992;28;20029;-95
2023/01/26 01:39:28;;;;;;;14.43;8.35;;;3.70;73.80;;;;;;5014183;28;20030;-96
2023/01/26 01:41:54;;;;;;;12.30;7.93;;;3.70;73.80;;;;;;5012993;28;20045;-94
2023/01/26 01:44:22;;;;;;;15.50;8.45;;;3.70;73.70;;;;;;5010886;28;20123;-94
2023/01/26 01:46:57;;;;;;;14.63;7.82;;;3.70;73.70;;;;;;5016379;28;20052;-96
2023/01/26 01:49:49;;;;;;;18.48;8.73;;;3.70;73.80;;;;;;5022525;28;20022;-96
2023/01/26 01:52:25;;;;;;;14.07;7.82;;;3.70;73.90;;;;;;5008129;28;20041;-96
2023/01/26 01:54:57;;;;;;;15.00;8.05;;;3.80;74.00;;;;;;5011612;28;20089;-96
2023/01/26 01:57:29;;;;;;;14.82;8.15;;;3.80;73.80;;;;;;5018381;28;20025;-95
2023/01/26 02:00:07;;;;;;;14.50;8.30;;;3.70;73.70;;;;;;5013555;28;20022;-95
2023/01/26 02:02:35;;;;;;;15.75;8.15;;;3.80;73.60;;;;;;5011415;28;20040;-95
2023/01/26 02:05:12;;;;;;;15.77;8.10;;;3.70;73.50;;;;;;5014341;28;20041;-94
2023/01/26 02:07:38;;;;;;;12.75;7.35;;;3.70;73.40;;;;;;5014250;28;20041;-95
2023/01/26 02:10:19;;;;;;;13.25;7.55;;;3.70;73.40;;;;;;5019029;28;20085;-95
2023/01/26 02:12:55;;;;;;;14.38;8.07;;;3.70;73.60;;;;;;5012659;28;20028;-95
2023/01/26 02:15:21;;;;;;;15.10;8.80;;;3.70;73.70;;;;;;5012711;28;20053;-94
2023/01/26 02:17:50;;;;;;;12.80;7.70;;;3.70;73.70;;;;;;5019398;28;20160;-95
2023/01/26 02:20:42;;;;;;;13.07;7.60;;;3.70;73.60;;;;;;5022260;28;20021;-94
2023/01/26 02:23:41;;;;;;;14.60;8.00;;;3.70;73.50;;;;;;5008493;28;20033;-95
2023/01/26 02:26:14;;;;;;;15.48;8.30;;;3.70;73.60;;;;;;5011321;28;20118;-93
2023/01/26 02:28:41;;;;;;;17.50;8.55;;;3.70;73.50;;;;;;5033710;28;20032;-93
2023/01/26 02:31:08;;;;;;;17.30;8.52;;;3.70;73.50;;;;;;5008003;28;20056;-96
2023/01/26 02:33:34;;;;;;;17.85;8.60;;;3.70;73.50;;;;;;5011173;28;20037;-94
2023/01/26 02:36:01;;;;;;;13.35;7.00;;;3.70;73.50;;;;;;5009575;28;20029;-93
2023/01/26 02:38:40;;;;;;;16.70;8.45;;;3.70;73.60;;;;;;5016436;28;20026;-95
2023/01/26 02:41:10;;;;;;;17.90;8.20;;;3.70;73.50;;;;;;5019581;28;20060;-96
2023/01/26 02:43:36;;;;;;;13.00;7.50;;;3.70;73.30;;;;;;5041787;28;20052;-95
2023/01/26 02:46:01;;;;;;;12.70;7.28;;;3.60;73.80;;;;;;5023605;28;20026;-95
2023/01/26 02:51:12;;;;;;;15.77;8.20;;;3.60;73.10;;;;;;5041482;28;20073;-96
2023/01/26 02:53:38;;;;;;;14.68;7.65;;;3.50;73.00;;;;;;5022226;28;20041;-95
2023/01/26 02:56:04;;;;;;;14.88;8.48;;;3.50;73.10;;;;;;5026343;28;20153;-96
2023/01/26 02:58:30;;;;;;;17.10;8.02;;;3.50;73.50;;;;;;5019913;28;20033;-95
2023/01/26 03:00:55;;;;;;;13.60;7.93;;;3.50;73.70;;;;;;5011996;28;20568;-94
2023/01/26 03:03:24;;;;;;;15.93;8.85;;;3.50;73.80;;;;;;5006234;28;20488;-93
2023/01/26 03:05:51;;;;;;;13.68;8.07;;;3.50;73.90;;;;;;5005440;28;20030;-94
2023/01/26 03:08:17;;;;;;;14.77;8.30;;;3.50;73.90;;;;;;5013963;28;20036;-94
2023/01/26 03:10:46;;;;;;;15.52;8.07;;;3.50;73.80;;;;;;5006734;28;20025;-94
2023/01/26 03:13:12;;;;;;;15.00;8.27;;;3.50;73.70;;;;;;5011770;28;20025;-94
2023/01/26 03:15:51;;;;;;;18.27;9.43;;;3.50;73.70;;;;;;5022824;28;20017;-94
2023/01/26 03:29:19;;;;;;;17.23;8.45;;;3.60;73.80;;;;;;5035574;28;20099;-94
2023/01/26 03:31:45;;;;;;;18.60;9.27;;;3.70;73.80;;;;;;5014360;28;20112;-94
2023/01/26 03:34:10;;;;;;;16.90;8.35;;;3.70;73.70;;;;;;5020295;28;20076;-94
2023/01/26 03:36:39;;;;;;;16.85;8.73;;;3.70;73.70;;;;;;5019088;28;20036;-94
2023/01/26 03:39:05;;;;;;;15.93;9.18;;;3.70;73.70;;;;;;5019762;28;20058;-94
2023/01/26 03:58:00;;;;;;;;;;;3.80;73.30;;;;;;5045733;28;20060;-96
2023/01/26 04:00:26;;;;;;;12.55;7.28;;;3.80;72.90;;;;;;5024503;28;19913;-95
2023/01/26 04:08:23;;;;;;;15.50;7.95;;;3.70;73.00;;;;;;5030820;28;20055;-94
2023/01/26 04:10:50;;;;;;;18.58;8.90;;;3.70;72.90;;;;;;5013841;28;20044;-94
2023/01/26 04:21:37;;;;;;;;;;;3.50;72.90;;;;;;5034988;28;20037;-94
2023/01/26 04:24:14;;;;;;;16.27;8.07;;;3.60;72.80;;;;;;5021333;28;19917;-95
2023/01/26 04:26:41;;;;;;;14.60;7.85;;;3.50;72.60;;;;;;5017166;28;20492;-95
2023/01/26 04:29:10;;;;;;;15.02;8.10;;;3.40;72.60;;;;;;5019755;28;20032;-94
2023/01/26 04:31:36;;;;;;;14.07;8.30;;;3.30;72.80;;;;;;5015783;28;20025;-94
2023/01/26 04:34:04;;;;;;;14.82;7.80;;;3.30;73.00;;;;;;5011895;28;20026;-95
2023/01/26 04:36:30;;;;;;;13.85;7.78;;;3.30;73.10;;;;;;5007851;28;20026;-94
2023/01/26 04:38:56;;;;;;;16.35;8.48;;;3.20;73.10;;;;;;5018145;28;20396;-94
2023/01/26 04:41:22;;;;;;;15.60;8.05;;;3.20;73.20;;;;;;5017338;28;20041;-94
2023/01/26 04:43:48;;;;;;;16.98;8.18;;;3.20;73.40;;;;;;5018871;28;20124;-94
2023/01/26 04:46:14;;;;;;;14.80;8.02;;;3.20;73.40;;;;;;5021746;28;20124;-94
2023/01/26 04:48:40;;;;;;;15.50;7.70;;;3.20;73.50;;;;;;5011743;28;20033;-94
2023/01/26 04:51:11;;;;;;;18.00;9.35;;;3.20;73.60;;;;;;5013359;28;20034;-94
2023/01/26 04:53:37;;;;;;;16.88;9.07;;;3.20;73.40;;;;;;5010984;28;20110;-95
2023/01/26 04:56:08;;;;;;;13.48;7.78;;;3.20;73.40;;;;;;5017557;28;20045;-94
2023/01/26 04:58:33;;;;;;;18.63;8.18;;;3.20;73.40;;;;;;5013438;28;20033;-95
2023/01/26 05:00:59;;;;;;;18.50;8.05;;;3.20;73.20;;;;;;5015757;28;20029;-95
2023/01/26 05:03:25;;;;;;;14.88;7.80;;;3.20;73.30;;;;;;5019798;28;20496;-95
2023/01/26 05:05:53;;;;;;;13.02;7.30;;;3.20;73.40;;;;;;5020519;28;20059;-94
2023/01/26 05:08:20;;;;;;;15.48;8.35;;;3.10;73.30;;;;;;5018160;28;20018;-94
2023/01/26 05:10:47;;;;;;;13.80;7.95;;;3.10;73.20;;;;;;5017954;28;20673;-93
2023/01/26 05:13:13;;;;;;;15.95;8.48;;;3.10;73.30;;;;;;5011759;28;20049;-95
2023/01/26 05:15:39;;;;;;;18.05;8.38;;;3.10;73.30;;;;;;5030485;28;20010;-93
2023/01/26 05:18:06;;;;;;;17.35;8.50;;;3.10;73.40;;;;;;5025963;28;20074;-94
2023/01/26 05:20:31;;;;;;;13.65;7.03;;;3.10;73.60;;;;;;5029118;28;20025;-94
2023/01/26 05:22:58;;;;;;;13.65;7.35;;;3.00;73.40;;;;;;5033277;28;20028;-93
2023/01/26 05:25:24;;;;;;;11.90;7.18;;;3.10;73.50;;;;;;5029789;28;20029;-93
2023/01/26 05:27:51;;;;;;;11.40;6.03;;;3.10;73.40;;;;;;5028856;28;20029;-94
2023/01/26 05:30:17;;;;;;;12.77;7.28;;;3.10;73.40;;;;;;5020110;28;20103;-93
2023/01/26 05:32:43;;;;;;;14.88;6.72;;;3.10;73.50;;;;;;5015193;28;20037;-93
2023/01/26 05:35:09;;;;;;;12.90;6.55;;;3.10;73.60;;;;;;5017732;28;20025;-93
2023/01/26 05:37:35;;;;;;;11.60;6.38;;;3.10;74.30;;;;;;5013571;28;20057;-94
2023/01/26 05:40:01;;;;;;;13.57;7.07;;;3.10;73.50;;;;;;5013791;28;20033;-95
2023/01/26 05:42:27;;;;;;;11.38;6.55;;;3.10;73.60;;;;;;5016528;28;20036;-94
2023/01/26 05:44:53;;;;;;;19.27;9.93;;;3.10;73.50;;;;;;5016874;28;20037;-94
2023/01/26 05:47:19;;;;;;;13.50;7.85;;;3.10;73.50;;;;;;5016481;28;20468;-94
2023/01/26 05:49:45;;;;;;;13.00;7.68;;;3.20;73.60;;;;;;5016282;28;20022;-95
2023/01/26 05:52:18;;;;;;;12.60;7.15;;;3.20;73.50;;;;;;5014625;28;20112;-95
2023/01/26 05:54:45;;;;;;;13.60;6.78;;;3.20;73.50;;;;;;5010201;28;20063;-94
2023/01/26 05:57:11;;;;;;;12.43;7.03;;;3.20;73.50;;;;;;5005553;28;20034;-95
2023/01/26 05:59:37;;;;;;;16.15;7.55;;;3.30;73.60;;;;;;5018463;28;20392;-93
2023/01/26 06:02:03;;;;;;;13.75;7.03;;;3.30;73.50;;;;;;5015025;28;20031;-94
2023/01/26 06:04:30;;;;;;;11.75;6.10;;;3.30;73.30;;;;;;5009148;28;20042;-95
2023/01/26 06:06:57;;;;;;;11.07;6.47;;;3.30;73.20;;;;;;5005352;28;20030;-94
2023/01/26 06:09:24;;;;;;;11.13;6.80;;;3.30;73.30;;;;;;5016673;28;20043;-95
2023/01/26 06:11:50;;;;;;;13.70;7.25;;;3.30;73.30;;;;;;5010728;28;20120;-94
2023/01/26 06:14:16;;;;;;;11.52;6.82;;;3.30;73.30;;;;;;5014450;28;20029;-94
2023/01/26 06:16:42;;;;;;;13.18;6.88;;;3.30;73.30;;;;;;5012000;28;20025;-94
2023/01/26 06:19:09;;;;;;;13.75;6.95;;;3.30;73.30;;;;;;5018841;28;20033;-95
2023/01/26 06:21:35;;;;;;;12.10;7.13;;;3.40;73.30;;;;;;5016973;28;20473;-95
2023/01/26 06:24:01;;;;;;;12.18;7.22;;;3.40;73.20;;;;;;5016771;28;20042;-96
2023/01/26 06:26:27;;;;;;;12.50;6.72;;;3.40;73.40;;;;;;5010997;28;20025;-95
2023/01/26 06:28:54;;;;;;;13.95;7.47;;;3.40;73.40;;;;;;5021122;28;20093;-94
2023/01/26 06:31:28;;;;;;;12.48;7.50;;;3.40;73.50;;;;;;5016683;28;20036;-93
2023/01/26 06:33:54;;;;;;;15.20;8.00;;;3.40;73.40;;;;;;5015260;28;20037;-94
2023/01/26 06:36:20;;;;;;;12.40;7.32;;;3.50;73.40;;;;;;5035178;28;20037;-94
2023/01/26 06:38:51;;;;;;;12.27;7.28;;;3.50;73.30;;;;;;5016624;28;20021;-93
2023/01/26 06:41:18;;;;;;;12.43;7.05;;;3.50;73.20;;;;;;5030580;28;20060;-93
2023/01/26 06:43:46;;;;;;;14.88;8.07;;;3.50;73.10;;;;;;5018633;28;20056;-95
2023/01/26 06:46:12;;;;;;;15.00;7.68;;;3.50;73.10;;;;;;5015410;28;20120;-95
2023/01/26 06:48:38;;;;;;;13.40;7.20;;;3.50;73.00;;;;;;5004260;28;20053;-94
2023/01/26 06:51:25;;;;;;;13.25;7.30;;;3.50;73.00;;;;;;5019067;28;20487;-94
2023/01/26 06:53:53;;;;;;;14.82;8.00;;;3.60;73.20;;;;;;5015010;28;20120;-93
2023/01/26 06:56:20;;;;;;;15.57;7.82;;;3.60;73.20;;;;;;5019410;28;20029;-96
2023/01/26 06:58:45;;;;;;;14.77;8.30;;;3.60;73.20;;;;;;5019680;28;20046;-96
2023/01/26 07:01:25;;;;;;;13.68;7.57;;;3.60;73.80;;;;;;5026365;28;20026;-96
2023/01/26 07:03:52;;;;;;;12.25;6.82;;;3.60;73.20;;;;;;5021336;28;20105;-95
2023/01/26 07:06:18;;;;;;;12.93;7.03;;;3.60;73.20;;;;;;5025731;28;20025;-96
2023/01/26 07:08:44;;;;;;;13.45;7.15;;;3.70;73.00;;;;;;5021009;28;20048;-94
2023/01/26 07:11:11;;;;;;;15.38;7.15;;;3.70;73.00;;;;;;5022202;28;20018;-96
2023/01/26 07:13:38;;;;;;;13.15;7.35;;;3.70;73.10;;;;;;5027021;28;20038;-95
2023/01/26 07:16:09;;;;;;;13.88;7.05;;;3.70;73.10;;;;;;5012764;28;20385;-94
2023/01/26 07:18:36;;;;;;;11.80;6.78;;;3.70;73.20;;;;;;5011733;28;20030;-95
2023/01/26 07:21:07;;;;;;;11.75;7.15;;;3.70;73.30;;;;;;5010421;28;20026;-93
2023/01/26 07:23:33;;;;;;;14.38;7.63;;;3.70;73.10;;;;;;5009459;28;20025;-94
2023/01/26 07:25:59;;;;;;;12.48;6.90;;;3.70;72.90;;;;;;5012385;28;20036;-94
2023/01/26 07:28:26;;;;;;;15.95;8.23;;;3.70;72.90;;;;;;5010869;28;20037;-94
2023/01/26 07:30:55;;;;;;;13.90;7.18;;;3.70;72.90;;;;;;5029875;28;20030;-93
2023/01/26 07:33:22;;;;;;;15.55;7.55;;;3.70;72.80;;;;;;5013570;28;20083;-94
2023/01/26 07:35:52;;;;;;;12.02;6.63;;;3.70;72.50;;;;;;5014900;28;20508;-93
2023/01/26 07:38:18;;;;;;;14.85;7.38;;;3.70;72.40;;;;;;5015110;28;20036;-94
2023/01/26 07:40:52;;;;;;;14.45;7.32;;;3.70;72.30;;;;;;5036263;28;20041;-93
2023/01/26 07:43:18;;;;;;;13.32;7.18;;;3.70;72.50;;;;;;5016298;28;20097;-96
2023/01/26 07:45:45;;;;;;;14.68;6.75;;;3.70;72.50;;;;;;5018933;28;20022;-95
2023/01/26 07:48:11;;;;;;;10.13;6.20;;;3.70;72.60;;;;;;5033091;28;20038;-94
2023/01/26 07:50:37;;;;;;;14.25;6.50;;;3.70;72.40;;;;;;5030375;28;20044;-94
2023/01/26 07:53:03;;;;;;;9.18;5.85;;;3.70;72.40;;;;;;5031053;28;20033;-94
2023/01/26 07:55:28;;;;;;;10.57;6.40;;;3.60;72.30;;;;;;5051190;28;20018;-95
2023/01/26 07:57:56;;;;;;;12.15;5.90;;;3.60;72.20;;;;;;5033802;28;20026;-93
2023/01/26 08:00:22;;;;;;;10.88;5.70;;;3.60;71.90;;;;;;5034698;28;20013;-92
2023/01/26 08:02:51;;;;;;;9.13;5.25;;;3.50;71.70;;;;;;5035674;28;20013;-93
2023/01/26 08:05:17;;;;;;;7.70;4.72;;;3.50;71.80;;;;;;5019321;28;20041;-93
2023/01/26 08:07:43;;;;;;;7.72;4.43;;;3.50;72.10;;;;;;5007650;28;20431;-95
2023/01/26 08:10:11;;;;;;;8.35;4.95;;;3.40;72.00;;;;;;5010589;28;20029;-94
2023/01/26 08:12:36;;;;;;;8.00;4.72;;;3.40;72.20;;;;;;5011503;28;20107;-96
2023/01/26 08:15:03;;;;;;;5.63;3.90;;;3.40;72.20;;;;;;5009946;28;20389;-95
2023/01/26 08:17:29;;;;;;;7.50;4.05;;;3.40;72.40;;;;;;5006881;28;20021;-94
2023/01/26 08:19:55;;;;;;;8.90;5.20;;;3.40;72.40;;;;;;5009223;28;20026;-94
2023/01/26 08:22:21;;;;;;;9.25;4.43;;;3.50;72.20;;;;;;5006006;28;20021;-95
2023/01/26 08:24:47;;;;;;;8.98;4.60;;;3.50;72.10;;;;;;5009953;28;20045;-95
2023/01/26 08:27:14;;;;;;;6.88;4.82;;;3.50;72.20;;;;;;5003195;28;20113;-95
2023/01/26 08:29:40;;;;;;;7.32;4.70;;;3.60;72.00;;;;;;5012292;28;20030;-94
2023/01/26 08:32:07;;;;;;;9.43;5.00;;;3.60;71.90;;;;;;5011786;28;20485;-95
2023/01/26 08:34:34;;;;;;;8.65;4.82;;;3.60;72.00;;;;;;5011897;28;20057;-94
2023/01/26 08:37:00;;;;;;;6.30;4.13;;;3.60;72.10;;;;;;5009315;28;20030;-94
2023/01/26 08:39:26;;;;;;;6.72;3.90;;;3.60;72.20;;;;;;5015555;28;20033;-94
2023/01/26 08:41:52;;;;;;;7.68;4.32;;;3.70;72.10;;;;;;5013528;28;20428;-93
2023/01/26 08:44:18;;;;;;;9.48;4.40;;;3.70;71.90;;;;;;5012764;28;20037;-95
2023/01/26 10:20:42;;;;;;;5.80;3.47;;;4.00;71.20;;;;;;5000083;28;20046;-65
2023/01/26 10:23:27;;;;;;;6.00;3.67;;;4.00;71.10;;;;;;5004770;28;20026;-65
2023/01/26 10:25:57;;;;;;;6.10;3.35;;;4.00;70.70;;;;;;4980955;28;20039;-65
2023/01/26 10:28:25;;;;;;;5.50;3.50;;;4.00;71.00;;;;;;5001249;28;20029;-66
2023/01/26 10:30:51;;;;;;;4.00;2.70;;;4.00;71.00;;;;;;5000214;28;20061;-66
2023/01/26 10:33:25;;;;;;;4.35;3.28;;;4.20;71.00;;;;;;5002586;28;20098;-64
2023/01/26 10:35:50;;;;;;;5.20;3.50;;;4.00;70.80;;;;;;5000141;28;20093;-66
2023/01/26 10:38:32;;;;;;;4.20;3.10;;;4.00;70.90;;;;;;5003690;28;20061;-64
2023/01/26 10:41:05;;;;;;;3.97;3.00;;;4.00;70.80;;;;;;4991336;28;20038;-64
2023/01/26 10:43:35;;;;;;;5.13;3.33;;;4.10;71.00;;;;;;4993287;28;20023;-66
2023/01/26 10:46:02;;;;;;;4.50;3.30;;;4.10;71.00;;;;;;5005933;28;20041;-66
2023/01/26 10:48:28;;;;;;;5.07;3.20;;;4.10;70.90;;;;;;5005975;28;20393;-65
2023/01/26 10:50:54;;;;;;;7.00;3.72;;;4.20;70.70;;;;;;4998415;28;20067;-65
2023/01/26 10:53:28;;;;;;;4.72;3.50;;;4.20;70.60;;;;;;5001520;28;20033;-66
2023/01/26 10:56:11;;;;;;;4.85;3.60;;;4.20;70.40;;;;;;5004490;28;20145;-66
2023/01/26 10:58:54;;;;;;;5.30;3.28;;;4.30;70.40;;;;;;5000866;28;20054;-66
2023/01/26 11:01:26;;;;;;;4.70;3.03;;;4.20;70.10;;;;;;4984000;28;20034;-66
2023/01/26 11:04:10;;;;;;;4.03;3.13;;;4.20;70.10;;;;;;5002573;28;20053;-65
2023/01/26 11:06:36;;;;;;;4.00;2.97;;;4.20;69.80;;;;;;5003831;28;20440;-66
2023/01/26 11:09:14;;;;;;;4.28;3.33;;;4.10;70.10;;;;;;4998543;28;20026;-67
2023/01/26 11:11:40;;;;;;;4.60;3.15;;;4.10;70.00;;;;;;5002619;28;20034;-65
2023/01/26 11:14:12;;;;;;;4.30;3.15;;;4.10;70.40;;;;;;5004278;28;20029;-65
2023/01/26 11:16:43;;;;;;;5.00;3.17;;;4.10;69.60;;;;;;4983322;28;20111;-65
2023/01/26 11:19:16;;;;;;;5.18;3.28;;;4.10;70.00;;;;;;5005409;28;20128;-64
2023/01/26 11:21:59;;;;;;;4.22;3.35;;;4.00;70.00;;;;;;5011135;28;20057;-65
2023/01/26 11:24:33;;;;;;;3.67;3.13;;;4.00;69.70;;;;;;5016923;28;20041;-66
2023/01/26 11:27:10;;;;;;;5.30;3.58;;;4.00;70.10;;;;;;5017391;28;20022;-66
2023/01/26 11:30:17;;;;;;;6.13;3.40;;;4.00;70.30;;;;;;5014582;28;20096;-65
2023/01/26 11:33:02;;;;;;;6.00;3.60;;;3.90;70.30;;;;;;5016841;28;20025;-65
2023/01/26 11:35:46;;;;;;;6.40;4.18;;;3.90;70.10;;;;;;5017183;28;20026;-65
2023/01/26 11:38:17;;;;;;;5.00;3.58;;;3.90;69.50;;;;;;5018411;28;20029;-65
2023/01/26 11:40:56;;;;;;;6.65;4.18;;;3.80;69.70;;;;;;5001338;28;20998;-64
2023/01/26 11:43:34;;;;;;;4.65;3.90;;;3.80;69.80;;;;;;5014860;28;20026;-66
2023/01/26 11:46:21;;;;;;;10.75;4.75;;;3.70;70.00;;;;;;5015542;28;20038;-64
2023/01/26 11:49:28;;;;;;;6.75;4.05;;;3.70;70.30;;;;;;5003788;28;20026;-65
2023/01/26 11:52:13;;;;;;;7.78;4.00;;;3.70;69.90;;;;;;4991824;28;20377;-65
2023/01/26 11:55:16;;;;;;;6.68;4.15;;;3.70;70.50;;;;;;4995090;28;20401;-66
2023/01/26 11:58:06;;;;;;;8.13;4.57;;;3.70;70.50;;;;;;4990642;28;20121;-65
2023/01/26 12:00:53;;;;;;;6.05;4.38;;;3.70;70.30;;;;;;4995002;28;20061;-65
2023/01/26 12:03:25;;;;;;;6.15;3.90;;;3.70;70.40;;;;;;4995967;28;20042;-66
2023/01/26 12:05:59;;;;;;;7.45;4.60;;;3.70;70.50;;;;;;4997183;28;20045;-66
2023/01/26 12:09:17;;;;;;;6.80;4.28;;;3.80;70.50;;;;;;4981031;28;20122;-64
2023/01/26 12:11:53;;;;;;;5.85;3.95;;;3.70;70.20;;;;;;4950652;29;20036;-66
2023/01/26 12:14:27;;;;;;;5.97;3.97;;;3.80;70.40;;;;;;4955337;28;20039;-65
2023/01/26 12:17:27;;;;;;;4.65;3.10;;;3.80;70.30;;;;;;4946376;29;20158;-66
2023/01/26 12:20:03;;;;;;;6.53;4.28;;;3.70;70.30;;;;;;4944601;29;20047;-65
2023/01/26 12:22:37;;;;;;;7.13;4.25;;;3.70;70.50;;;;;;4945191;29;20063;-66
2023/01/26 12:25:41;;;;;;;8.50;5.18;;;3.80;70.60;;;;;;4946382;29;20047;-64
2023/01/26 12:28:21;;;;;;;8.43;4.95;;;3.70;70.40;;;;;;4938414;29;20047;-66
2023/01/26 12:31:01;;;;;;;8.57;5.45;;;3.70;70.60;;;;;;4953885;29;20019;-66
2023/01/26 12:33:27;;;;;;;8.30;5.18;;;3.70;70.40;;;;;;4949493;29;20035;-66
2023/01/26 12:36:19;;;;;;;8.82;5.22;;;3.70;70.30;;;;;;4948213;29;20070;-66
2023/01/26 12:38:56;;;;;;;9.52;5.78;;;3.70;70.50;;;;;;4938113;29;20042;-65
2023/01/26 12:41:52;;;;;;;12.90;6.78;;;3.70;70.60;;;;;;4948651;28;20035;-66
2023/01/26 12:44:40;;;;;;;10.68;5.75;;;3.70;70.70;;;;;;5018785;28;20046;-65
2023/01/26 12:47:26;;;;;;;9.77;5.25;;;3.60;70.70;;;;;;5016749;28;21674;-65
2023/01/26 12:50:18;;;;;;;9.80;5.78;;;3.90;71.10;;;;;;5024391;28;20054;-65
2023/01/26 12:53:03;;;;;;;11.45;5.95;;;3.70;70.90;;;;;;5017047;28;20045;-66
2023/01/26 12:55:35;;;;;;;10.23;5.95;;;3.70;71.70;;;;;;5017690;28;20034;-66
2023/01/26 12:58:12;;;;;;;9.88;5.72;;;3.70;71.10;;;;;;5014616;28;20076;-65
2023/01/26 13:00:39;;;;;;;11.38;6.13;;;3.70;71.20;;;;;;5020734;28;20089;-66
2023/01/26 13:03:14;;;;;;;8.40;5.45;;;3.70;71.30;;;;;;4998520;28;20033;-66
2023/01/26 13:05:59;;;;;;;12.40;6.07;;;3.80;71.20;;;;;;5021675;28;20033;-64
2023/01/26 13:08:31;;;;;;;9.25;5.35;;;3.80;70.80;;;;;;5017462;28;20054;-64
2023/01/26 13:10:58;;;;;;;9.35;5.40;;;3.80;70.60;;;;;;5001192;28;20030;-66
2023/01/26 13:13:44;;;;;;;9.63;5.45;;;3.80;70.80;;;;;;5017256;28;20057;-67
2023/01/26 13:16:15;;;;;;;9.77;5.15;;;3.80;70.90;;;;;;5018930;28;20026;-67
2023/01/26 13:18:56;;;;;;;8.85;5.53;;;3.80;70.80;;;;;;5021035;28;20044;-67
2023/01/26 13:21:34;;;;;;;10.02;5.60;;;3.80;70.80;;;;;;5019792;28;20482;-66
2023/01/26 13:24:00;;;;;;;11.38;6.00;;;3.90;70.80;;;;;;4936630;28;20033;-66
2023/01/26 13:26:32;;;;;;;11.30;6.43;;;3.80;70.80;;;;;;5000257;28;20492;-65
2023/01/26 13:29:31;;;;;;;13.48;6.13;;;3.80;70.60;;;;;;5019835;28;20034;-67
2023/01/26 13:31:57;;;;;;;10.30;5.95;;;3.80;70.60;;;;;;5015777;28;20026;-67
2023/01/26 13:34:58;;;;;;;9.88;5.80;;;3.80;70.70;;;;;;5017596;28;20057;-66
2023/01/26 13:37:49;;;;;;;12.07;6.57;;;3.70;70.80;;;;;;5011222;28;20053;-65
2023/01/26 13:40:27;;;;;;;9.70;5.95;;;3.70;70.80;;;;;;5018648;28;20022;-67
2023/01/26 13:43:17;;;;;;;12.38;6.47;;;3.70;70.90;;;;;;5020662;28;20124;-66
2023/01/26 13:46:04;;;;;;;12.90;6.57;;;3.70;71.10;;;;;;5009061;28;20034;-65
2023/01/26 13:48:39;;;;;;;13.18;6.60;;;3.70;71.10;;;;;;5016528;28;20026;-65
2023/01/26 13:51:07;;;;;;;12.40;6.93;;;3.70;71.00;;;;;;5009838;28;20358;-65
2023/01/26 13:53:37;;;;;;;13.32;7.45;;;3.80;71.10;;;;;;5020893;28;20038;-65
2023/01/26 13:56:21;;;;;;;13.55;6.68;;;3.60;71.10;;;;;;5015953;28;20030;-66
2023/01/26 13:58:46;;;;;;;13.05;6.97;;;3.60;71.10;;;;;;5009379;28;20066;-65
2023/01/26 14:01:13;;;;;;;11.18;6.65;;;3.60;71.10;;;;;;5019899;28;20037;-66
2023/01/26 14:03:39;;;;;;;12.68;6.72;;;3.60;71.20;;;;;;5018834;28;20522;-66
2023/01/26 14:06:08;;;;;;;11.07;6.97;;;3.60;71.30;;;;;;5014303;28;20026;-66
2023/01/26 14:08:35;;;;;;;11.57;7.03;;;3.60;71.40;;;;;;5009170;28;20045;-66
2023/01/26 14:11:04;;;;;;;12.13;6.60;;;3.60;71.60;;;;;;4989156;28;20510;-66
2023/01/26 14:13:36;;;;;;;13.27;6.85;;;3.70;71.40;;;;;;5011895;28;20045;-65
2023/01/26 14:16:04;;;;;;;12.18;6.97;;;3.70;71.30;;;;;;5003836;28;20057;-67
2023/01/26 14:18:30;;;;;;;11.88;7.00;;;3.70;71.40;;;;;;5013140;28;20018;-65
2023/01/26 14:21:05;;;;;;;11.73;6.85;;;3.70;71.40;;;;;;5017169;28;20041;-66
2023/01/26 14:23:35;;;;;;;13.95;7.30;;;3.70;71.30;;;;;;4921297;28;20681;-64
2023/01/26 14:26:17;;;;;;;13.55;7.47;;;3.70;71.30;;;;;;4998811;28;20029;-66
2023/01/26 14:28:44;;;;;;;11.45;6.30;;;3.70;70.90;;;;;;5017304;28;20382;-66
2023/01/26 14:31:19;;;;;;;10.43;6.50;;;3.70;70.90;;;;;;5014965;28;20040;-65
2023/01/26 14:33:45;;;;;;;11.77;6.53;;;3.70;71.60;;;;;;5013052;28;20022;-64
2023/01/26 14:36:19;;;;;;;13.50;6.53;;;3.70;71.00;;;;;;5010243;28;20029;-65
2023/01/26 14:38:47;;;;;;;13.05;7.28;;;3.70;71.10;;;;;;5012995;28;20033;-64
2023/01/26 14:41:32;;;;;;;13.32;6.95;;;3.80;71.20;;;;;;5017819;28;20033;-66
2023/01/26 14:44:00;;;;;;;;;;;3.80;71.20;;;;;;5014279;28;20052;-66
2023/01/26 14:46:34;;;;;;;12.93;5.95;;;3.80;70.70;;;;;;5017487;28;19932;-65
2023/01/26 14:49:13;;;;;;;15.23;7.20;;;3.80;70.90;;;;;;5015825;28;20025;-66
2023/01/26 14:51:42;;;;;;;11.55;6.72;;;3.80;70.80;;;;;;5014521;28;20041;-66
2023/01/26 14:54:28;;;;;;;14.35;7.55;;;3.70;70.90;;;;;;5015416;28;20036;-66
2023/01/26 14:56:54;;;;;;;14.40;7.53;;;3.70;70.80;;;;;;5015807;28;20109;-66
2023/01/26 14:59:24;;;;;;;11.75;6.72;;;3.70;70.80;;;;;;5017426;28;20033;-66
2023/01/26 15:01:50;;;;;;;11.35;6.57;;;3.70;70.70;;;;;;4997587;28;20038;-64
2023/01/26 15:04:35;;;;;;;11.45;6.60;;;3.70;70.90;;;;;;5016304;28;20057;-65
2023/01/26 15:07:29;;;;;;;13.55;7.13;;;3.70;70.80;;;;;;5019513;28;20079;-65
2023/01/26 15:09:54;;;;;;;12.45;6.50;;;3.70;70.90;;;;;;5012821;28;20029;-66
2023/01/26 15:12:20;;;;;;;9.77;6.40;;;3.60;71.00;;;;;;5016707;28;20075;-65
2023/01/26 15:14:49;;;;;;;13.23;7.05;;;3.70;71.10;;;;;;5017015;28;20022;-66
2023/01/26 15:17:39;;;;;;;13.38;7.45;;;3.60;71.10;;;;;;5016495;28;20066;-65
2023/01/26 15:20:11;;;;;;;13.57;7.32;;;3.60;71.00;;;;;;4994866;28;20056;-65
2023/01/26 15:22:36;;;;;;;12.60;7.38;;;3.70;71.10;;;;;;5019455;28;20049;-66
2023/01/26 15:25:21;;;;;;;12.43;6.93;;;3.60;71.00;;;;;;5000332;28;20029;-65
2023/01/26 15:27:57;;;;;;;15.98;7.70;;;3.60;70.90;;;;;;5016490;28;20052;-64
2023/01/26 15:30:29;;;;;;;13.75;7.80;;;3.60;70.80;;;;;;5011616;28;20049;-67